Time;durP1;ratioP1;P1;durP2;ratioP2;P2;SDS_P1;SDS_P2;PMS_P1;PMS_P2;Temp;Humidity;BMP_temperature;BMP_pressure;BME280_temperature;BME280_humidity;BME280_pressure;Samples;Min_cycle;Max_cycle;Signal;HPM_P1;HPM_P2
2021/11/25 00:00:20;;;;;;;12.63;12.23;;;18.10;81.90;;;;;;5053129;28;20535;-46
2021/11/25 00:02:46;;;;;;;12.77;12.30;;;18.10;82.00;;;;;;5053031;28;20539;-47
2021/11/25 00:05:15;;;;;;;12.60;12.20;;;18.00;82.10;;;;;;5053084;28;20985;-47
2021/11/25 00:07:41;;;;;;;13.23;12.80;;;18.10;81.80;;;;;;5044210;28;20961;-47
2021/11/25 00:10:10;;;;;;;13.50;13.03;;;18.20;81.60;;;;;;5033232;28;20488;-47
2021/11/25 00:12:37;;;;;;;13.20;12.80;;;18.20;81.00;;;;;;5032794;28;20572;-46
2021/11/25 00:15:04;;;;;;;13.10;12.70;;;18.30;80.70;;;;;;5033538;28;20441;-47
2021/11/25 00:17:32;;;;;;;12.40;12.00;;;18.20;80.60;;;;;;5052902;28;20448;-46
2021/11/25 00:19:59;;;;;;;12.80;12.40;;;18.20;80.80;;;;;;5052801;28;21003;-47
2021/11/25 00:22:27;;;;;;;13.63;13.13;;;18.20;80.50;;;;;;5052797;28;20448;-46
2021/11/25 00:24:54;;;;;;;13.20;12.80;;;18.30;80.20;;;;;;5052890;28;20818;-45
2021/11/25 00:27:21;;;;;;;13.33;12.93;;;18.20;80.00;;;;;;5033041;28;20472;-46
2021/11/25 00:29:48;;;;;;;13.37;12.87;;;18.30;79.90;;;;;;5032287;28;20469;-46
2021/11/25 00:32:15;;;;;;;13.00;12.47;;;18.30;80.00;;;;;;5032496;28;20480;-45
2021/11/25 00:34:42;;;;;;;12.97;12.50;;;18.30;79.50;;;;;;5032741;28;20536;-45
2021/11/25 00:37:09;;;;;;;13.30;12.70;;;18.30;79.40;;;;;;5035892;28;20444;-46
2021/11/25 00:39:37;;;;;;;13.90;13.40;;;18.30;79.30;;;;;;5052140;28;20474;-45
2021/11/25 00:42:05;;;;;;;13.73;13.17;;;18.30;79.20;;;;;;5052268;28;20480;-45
2021/11/25 00:44:31;;;;;;;13.40;12.90;;;18.30;79.20;;;;;;5052340;28;20451;-45
2021/11/25 00:46:58;;;;;;;14.00;13.50;;;18.30;79.20;;;;;;5052427;28;20448;-46
2021/11/25 00:49:25;;;;;;;14.27;13.67;;;18.30;79.20;;;;;;5066012;22;20580;-54
2021/11/25 00:51:52;;;;;;;13.73;13.23;;;18.30;79.30;;;;;;5031959;28;20425;-51
2021/11/25 00:54:19;;;;;;;14.10;13.60;;;18.20;79.20;;;;;;5032210;28;20448;-54
2021/11/25 00:56:47;;;;;;;13.30;12.80;;;18.20;79.60;;;;;;5032281;28;20443;-56
2021/11/25 00:59:14;;;;;;;15.20;14.60;;;18.10;79.40;;;;;;5032139;28;20476;-52
2021/11/25 01:01:41;;;;;;;13.80;13.30;;;18.20;79.50;;;;;;5040513;28;20448;-51
2021/11/25 01:04:08;;;;;;;14.33;13.50;;;18.20;79.40;;;;;;5052003;28;20522;-52
2021/11/25 01:06:35;;;;;;;14.10;13.30;;;18.10;80.10;;;;;;5052026;28;20446;-53
2021/11/25 01:09:02;;;;;;;14.47;13.67;;;18.00;80.70;;;;;;5051909;28;20468;-51
2021/11/25 01:11:29;;;;;;;14.23;13.60;;;18.00;80.90;;;;;;5051748;28;20455;-51
2021/11/25 01:13:57;;;;;;;14.10;13.60;;;18.00;81.10;;;;;;5041145;28;20496;-57
2021/11/25 01:16:24;;;;;;;13.07;12.57;;;18.00;81.20;;;;;;5047915;28;20452;-53
2021/11/25 01:18:51;;;;;;;13.47;12.90;;;18.00;81.40;;;;;;5051814;28;20468;-52
2021/11/25 01:21:18;;;;;;;13.70;13.20;;;17.90;81.40;;;;;;5051869;28;20446;-55
2021/11/25 01:23:45;;;;;;;14.43;13.87;;;18.00;81.90;;;;;;5051569;28;20448;-54
2021/11/25 01:26:12;;;;;;;13.07;12.57;;;18.00;80.80;;;;;;5039676;28;20953;-54
2021/11/25 01:28:39;;;;;;;14.17;13.37;;;18.00;80.50;;;;;;5031704;28;20487;-51
2021/11/25 01:31:07;;;;;;;13.50;13.10;;;18.10;80.50;;;;;;5031825;28;20803;-49
2021/11/25 01:33:34;;;;;;;13.60;13.10;;;17.90;80.80;;;;;;5034693;28;20476;-54
2021/11/25 01:36:01;;;;;;;14.10;13.50;;;18.00;81.50;;;;;;5051570;28;20941;-49
2021/11/25 01:38:28;;;;;;;14.03;13.43;;;18.00;81.30;;;;;;5051485;28;20474;-52
2021/11/25 01:40:55;;;;;;;13.80;13.30;;;18.00;81.20;;;;;;5050812;28;20814;-51
2021/11/25 01:43:25;;;;;;;14.10;13.50;;;18.00;81.30;;;;;;5049135;28;20439;-53
2021/11/25 01:45:52;;;;;;;13.90;13.40;;;18.00;81.30;;;;;;5031616;28;20544;-51
2021/11/25 01:48:20;;;;;;;14.20;13.50;;;17.90;81.30;;;;;;5031283;28;20449;-50
2021/11/25 01:50:49;;;;;;;14.07;13.43;;;17.90;81.50;;;;;;5031541;28;20448;-50
2021/11/25 01:53:17;;;;;;;13.87;13.37;;;17.90;81.10;;;;;;5031159;28;20492;-52
2021/11/25 01:55:44;;;;;;;14.27;13.77;;;17.90;80.90;;;;;;5035784;28;20467;-50
2021/11/25 01:58:11;;;;;;;13.97;13.40;;;17.90;81.10;;;;;;5051389;28;20999;-51
2021/11/25 02:00:42;;;;;;;14.13;13.53;;;17.90;81.20;;;;;;5051459;28;20538;-52
2021/11/25 02:03:09;;;;;;;14.73;13.77;;;17.90;81.10;;;;;;5051128;28;20436;-48
2021/11/25 02:05:38;;;;;;;14.10;13.50;;;17.80;81.80;;;;;;5051261;28;20440;-46
2021/11/25 02:08:06;;;;;;;14.07;13.47;;;17.90;82.00;;;;;;5046391;28;20452;-53
2021/11/25 02:10:35;;;;;;;14.33;13.73;;;17.80;82.30;;;;;;5031007;28;20471;-50
2021/11/25 02:13:01;;;;;;;14.63;13.77;;;17.90;82.00;;;;;;5031124;28;20484;-47
2021/11/25 02:15:34;;;;;;;14.47;13.87;;;17.90;82.00;;;;;;5031483;28;20801;-46
2021/11/25 02:18:01;;;;;;;14.13;13.57;;;17.90;82.10;;;;;;5031361;28;20981;-47
2021/11/25 02:20:33;;;;;;;14.33;13.60;;;17.80;82.30;;;;;;5032352;28;20994;-49
2021/11/25 02:23:00;;;;;;;13.80;13.30;;;17.80;82.00;;;;;;5031174;28;20441;-47
2021/11/25 02:25:27;;;;;;;13.50;13.03;;;17.90;82.10;;;;;;5031434;28;20453;-47
2021/11/25 02:27:54;;;;;;;14.03;13.53;;;17.90;81.80;;;;;;5031289;28;20457;-47
2021/11/25 02:30:21;;;;;;;13.70;13.20;;;17.80;81.60;;;;;;5042596;28;20464;-50
2021/11/25 02:32:48;;;;;;;13.90;13.30;;;17.80;81.80;;;;;;5050665;28;20486;-50
2021/11/25 02:35:17;;;;;;;13.13;12.70;;;17.80;82.00;;;;;;5031126;28;20449;-46
2021/11/25 02:37:46;;;;;;;13.70;13.20;;;17.80;82.20;;;;;;5031107;28;20471;-48
2021/11/25 02:40:21;;;;;;;12.33;11.93;;;17.70;82.50;;;;;;5030882;28;20468;-47
2021/11/25 02:42:51;;;;;;;13.07;12.67;;;17.80;83.10;;;;;;5044329;28;20970;-46
2021/11/25 02:45:19;;;;;;;13.97;13.37;;;17.80;82.70;;;;;;5050561;28;20452;-46
2021/11/25 02:47:46;;;;;;;14.17;13.67;;;17.80;82.80;;;;;;5050950;28;20452;-49
2021/11/25 02:50:14;;;;;;;13.70;13.10;;;17.80;83.20;;;;;;5050690;28;20478;-46
2021/11/25 02:52:41;;;;;;;13.70;13.10;;;17.70;83.20;;;;;;5051563;28;20933;-46
2021/11/25 02:55:10;;;;;;;13.87;13.37;;;17.80;83.20;;;;;;5036715;28;20452;-47
2021/11/25 02:57:38;;;;;;;13.90;13.40;;;17.80;82.90;;;;;;5034577;28;20441;-46
2021/11/25 03:00:09;;;;;;;13.60;13.10;;;17.70;83.00;;;;;;5034423;28;20471;-46
2021/11/25 03:02:35;;;;;;;13.87;13.30;;;17.70;82.80;;;;;;5034418;28;20444;-48
2021/11/25 03:05:02;;;;;;;13.67;13.17;;;17.80;82.80;;;;;;5036019;28;20445;-50
2021/11/25 03:07:29;;;;;;;13.93;13.33;;;17.70;83.00;;;;;;5054241;28;20448;-46
2021/11/25 03:09:56;;;;;;;13.50;13.00;;;17.70;83.50;;;;;;5054147;28;20486;-46
2021/11/25 03:12:24;;;;;;;13.87;13.37;;;17.70;83.40;;;;;;5054017;28;20444;-46
2021/11/25 03:14:51;;;;;;;14.00;13.50;;;17.70;83.50;;;;;;5054057;28;20486;-51
2021/11/25 03:17:17;;;;;;;14.07;13.57;;;17.60;83.40;;;;;;5051902;28;20456;-48
2021/11/25 03:19:44;;;;;;;13.77;13.27;;;17.70;83.80;;;;;;5034094;28;20461;-52
2021/11/25 03:22:11;;;;;;;13.77;13.20;;;17.70;83.60;;;;;;5033846;28;20949;-48
2021/11/25 03:24:38;;;;;;;13.20;12.70;;;17.70;83.60;;;;;;5034006;28;20444;-49
2021/11/25 03:27:06;;;;;;;14.20;13.53;;;17.60;83.60;;;;;;5034046;28;20820;-48
2021/11/25 03:29:34;;;;;;;14.17;13.57;;;17.70;83.80;;;;;;5036802;28;20999;-52
2021/11/25 03:32:01;;;;;;;14.00;13.50;;;17.60;83.50;;;;;;5053685;28;20819;-50
2021/11/25 03:34:27;;;;;;;14.60;14.10;;;17.60;83.60;;;;;;5053760;28;20576;-48
2021/11/25 03:36:54;;;;;;;12.70;12.20;;;17.60;83.50;;;;;;5053681;28;20484;-46
2021/11/25 03:39:21;;;;;;;14.47;13.77;;;17.70;84.30;;;;;;5038165;28;20990;-49
2021/11/25 03:41:48;;;;;;;13.80;13.30;;;17.60;84.00;;;;;;5033524;28;20459;-48
2021/11/25 03:44:15;;;;;;;14.60;14.00;;;17.60;84.20;;;;;;5033637;28;20447;-52
2021/11/25 03:46:43;;;;;;;13.90;13.40;;;17.50;84.20;;;;;;5033641;28;20528;-47
2021/11/25 03:49:11;;;;;;;14.33;13.60;;;17.60;84.40;;;;;;5046632;28;20830;-47
2021/11/25 03:51:37;;;;;;;14.77;14.17;;;17.60;84.40;;;;;;5051200;28;20885;-47
2021/11/25 03:54:05;;;;;;;13.23;12.77;;;17.60;84.50;;;;;;5033322;28;20568;-47
2021/11/25 03:56:32;;;;;;;13.87;13.37;;;17.70;84.60;;;;;;5033372;28;20480;-50
2021/11/25 03:58:58;;;;;;;13.83;13.23;;;17.70;84.50;;;;;;5033316;28;20472;-48
2021/11/25 04:01:25;;;;;;;14.80;14.20;;;17.70;84.30;;;;;;5047493;28;20444;-50
2021/11/25 04:03:53;;;;;;;14.10;13.60;;;17.70;84.60;;;;;;5052394;28;20527;-48
2021/11/25 04:06:20;;;;;;;14.43;13.90;;;17.70;84.80;;;;;;5053017;28;20930;-46
2021/11/25 04:08:47;;;;;;;14.27;13.77;;;17.60;85.00;;;;;;5052996;28;20499;-46
2021/11/25 04:11:14;;;;;;;13.80;13.30;;;17.70;85.20;;;;;;5053068;28;20447;-47
2021/11/25 04:13:41;;;;;;;13.77;13.27;;;17.70;86.10;;;;;;5038172;28;20846;-47
2021/11/25 04:16:08;;;;;;;13.73;13.23;;;17.70;87.60;;;;;;5033043;28;20973;-46
2021/11/25 04:18:35;;;;;;;14.13;13.63;;;17.50;89.50;;;;;;5033026;28;20465;-49
2021/11/25 04:21:03;;;;;;;14.17;13.67;;;17.50;90.00;;;;;;5032996;28;20884;-48
2021/11/25 04:23:30;;;;;;;14.17;13.57;;;17.50;90.30;;;;;;5032713;28;20441;-50
2021/11/25 04:25:57;;;;;;;14.20;13.60;;;17.50;90.10;;;;;;5051267;28;20556;-46
2021/11/25 04:28:24;;;;;;;13.80;13.33;;;17.60;90.00;;;;;;5052792;28;20491;-48
2021/11/25 04:36:23;;;;;;;14.50;13.90;;;17.60;89.40;;;;;;5045979;28;20444;-51
2021/11/25 04:38:50;;;;;;;14.53;14.03;;;17.60;90.30;;;;;;5032545;28;20962;-46
2021/11/25 04:41:16;;;;;;;13.80;13.30;;;17.50;90.50;;;;;;5032579;28;20449;-52
2021/11/25 04:43:43;;;;;;;13.80;13.20;;;17.60;90.50;;;;;;5032467;28;20445;-50
2021/11/25 04:46:10;;;;;;;14.50;13.97;;;17.50;90.70;;;;;;5050817;28;20836;-46
2021/11/25 04:48:37;;;;;;;13.67;13.13;;;17.60;90.60;;;;;;5052201;28;20562;-51
2021/11/25 04:51:04;;;;;;;14.77;13.97;;;17.60;90.40;;;;;;5052283;28;20469;-46
2021/11/25 04:53:32;;;;;;;14.13;13.57;;;17.60;90.20;;;;;;5051979;28;21115;-46
2021/11/25 04:55:59;;;;;;;14.30;13.70;;;17.60;90.10;;;;;;5050370;28;20501;-52
2021/11/25 04:58:26;;;;;;;14.80;14.20;;;17.60;90.20;;;;;;5052154;28;20499;-47
2021/11/25 05:00:53;;;;;;;14.27;13.77;;;17.60;90.20;;;;;;5052072;28;20455;-48
2021/11/25 05:03:19;;;;;;;14.90;14.30;;;17.60;90.20;;;;;;5052020;28;20952;-47
2021/11/25 05:05:47;;;;;;;15.97;15.27;;;17.60;90.30;;;;;;5052025;28;20462;-47
2021/11/25 05:08:13;;;;;;;15.27;14.67;;;17.50;90.60;;;;;;5032427;28;20817;-49
2021/11/25 05:10:42;;;;;;;15.33;14.73;;;17.60;90.60;;;;;;5033130;28;20451;-46
2021/11/25 05:13:09;;;;;;;15.10;14.50;;;17.60;90.50;;;;;;5047817;28;20825;-47
2021/11/25 05:15:36;;;;;;;14.73;14.13;;;17.70;90.50;;;;;;5051767;28;20553;-48
2021/11/25 05:18:03;;;;;;;14.30;13.80;;;17.70;90.40;;;;;;5041184;28;20458;-48
2021/11/25 05:20:29;;;;;;;15.63;14.60;;;17.70;90.40;;;;;;5031756;28;20469;-52
2021/11/25 05:22:56;;;;;;;15.60;14.50;;;17.80;99.90;;;;;;5039446;28;20444;-48
2021/11/25 05:25:23;;;;;;;17.73;16.03;;;17.80;99.90;;;;;;5012315;28;20442;-47
2021/11/25 05:27:52;;;;;;;18.07;15.90;;;17.90;99.90;;;;;;5029355;28;20450;-48
2021/11/25 05:30:20;;;;;;;21.93;15.30;;;18.00;99.90;;;;;;5051636;28;20464;-47
2021/11/25 05:32:48;;;;;;;15.93;14.33;;;18.10;99.90;;;;;;5051152;28;20890;-47
2021/11/25 05:35:16;;;;;;;14.37;12.67;;;18.20;99.90;;;;;;5051443;28;20527;-47
2021/11/25 05:37:43;;;;;;;22.53;11.30;;;18.30;99.90;;;;;;5045232;28;20798;-47
2021/11/25 05:40:12;;;;;;;16.83;10.50;;;18.30;99.90;;;;;;5031455;28;20465;-46
2021/11/25 05:42:39;;;;;;;16.97;10.97;;;18.30;99.90;;;;;;5031368;28;20441;-46
2021/11/25 05:45:09;;;;;;;17.03;11.60;;;18.20;99.90;;;;;;5031568;28;21017;-47
2021/11/25 05:47:38;;;;;;;17.23;12.20;;;18.20;99.90;;;;;;5035722;28;20453;-47
2021/11/25 05:50:08;;;;;;;18.90;12.70;;;18.10;99.90;;;;;;5040685;28;20514;-48
2021/11/25 05:52:35;;;;;;;16.03;14.63;;;18.90;99.90;;;;;;5046841;28;20462;-53
2021/11/25 05:55:02;;;;;;;16.30;14.97;;;20.40;99.90;;;;;;5050675;28;21001;-48
2021/11/25 05:57:28;;;;;;;17.87;16.00;;;21.40;99.90;;;;;;5051317;28;20452;-50
2021/11/25 05:59:55;;;;;;;17.80;16.00;;;22.00;99.90;;;;;;5051191;28;20830;-50
2021/11/25 06:02:23;;;;;;;18.00;16.50;;;22.20;99.90;;;;;;5051040;28;20543;-49
2021/11/25 06:04:51;;;;;;;18.63;16.77;;;22.50;99.90;;;;;;5051176;28;20875;-48
2021/11/25 06:07:18;;;;;;;17.77;16.27;;;22.60;99.40;;;;;;5051302;28;20452;-50
2021/11/25 06:09:45;;;;;;;18.33;16.93;;;22.60;98.10;;;;;;5051226;28;20474;-48
2021/11/25 06:12:12;;;;;;;18.27;16.90;;;22.70;96.80;;;;;;5050959;28;20452;-48
2021/11/25 06:14:38;;;;;;;17.47;16.30;;;22.70;95.70;;;;;;5050990;28;20490;-48
2021/11/25 06:17:05;;;;;;;18.13;16.97;;;22.70;94.80;;;;;;5051052;28;20480;-51
2021/11/25 06:19:34;;;;;;;21.33;19.33;;;22.70;93.90;;;;;;5051017;28;20494;-48
2021/11/25 06:22:01;;;;;;;18.17;16.60;;;22.60;93.20;;;;;;5050843;28;20535;-48
2021/11/25 06:24:28;;;;;;;18.03;16.70;;;22.60;92.70;;;;;;5051020;28;20440;-48
2021/11/25 06:26:55;;;;;;;18.70;17.30;;;22.50;92.20;;;;;;5051167;28;20447;-48
2021/11/25 06:29:21;;;;;;;17.60;16.20;;;22.40;91.80;;;;;;5054825;28;20500;-50
2021/11/25 06:31:48;;;;;;;16.60;15.70;;;22.30;91.30;;;;;;5054836;28;20439;-48
2021/11/25 06:34:15;;;;;;;17.27;16.13;;;22.30;91.00;;;;;;5054765;28;20483;-48
2021/11/25 06:36:43;;;;;;;17.70;16.47;;;22.20;90.70;;;;;;5054926;28;20873;-51
2021/11/25 06:39:11;;;;;;;17.80;16.57;;;22.10;90.40;;;;;;5054667;28;20558;-48
2021/11/25 06:41:38;;;;;;;16.80;15.83;;;22.00;90.30;;;;;;5054565;28;20444;-48
2021/11/25 06:44:06;;;;;;;15.23;14.63;;;21.90;90.20;;;;;;5054664;28;20440;-53
2021/11/25 06:46:32;;;;;;;15.37;14.17;;;21.80;90.00;;;;;;5054568;28;20494;-48
2021/11/25 06:48:59;;;;;;;15.97;14.67;;;21.70;89.90;;;;;;5055819;28;20503;-55
2021/11/25 06:51:27;;;;;;;14.97;14.17;;;21.60;89.60;;;;;;5059822;28;20448;-49
2021/11/25 06:53:56;;;;;;;14.63;13.77;;;21.50;89.30;;;;;;5059192;28;20534;-56
2021/11/25 06:56:23;;;;;;;14.77;13.97;;;21.40;89.10;;;;;;5059301;28;20450;-56
2021/11/25 06:58:51;;;;;;;14.43;13.73;;;21.30;88.80;;;;;;5059327;28;20521;-53
2021/11/25 07:01:18;;;;;;;14.43;13.60;;;21.30;88.80;;;;;;5058581;28;20877;-54
2021/11/25 07:03:45;;;;;;;14.87;13.93;;;21.20;88.40;;;;;;5058035;28;20889;-55
2021/11/25 07:06:12;;;;;;;16.70;15.20;;;21.10;88.30;;;;;;5057618;28;20448;-57
2021/11/25 07:08:39;;;;;;;15.83;15.03;;;21.00;88.10;;;;;;5057823;28;20478;-55
2021/11/25 07:11:07;;;;;;;14.97;14.27;;;20.90;88.00;;;;;;5057893;28;20440;-53
2021/11/25 07:13:34;;;;;;;15.53;14.73;;;20.80;87.70;;;;;;5053985;28;20532;-48
2021/11/25 07:16:01;;;;;;;15.73;14.80;;;20.80;87.70;;;;;;5053977;28;20510;-47
2021/11/25 07:18:28;;;;;;;14.60;13.93;;;20.70;87.50;;;;;;5053935;28;20448;-50
2021/11/25 07:20:54;;;;;;;15.03;14.23;;;20.70;87.60;;;;;;5054025;28;21005;-49
2021/11/25 07:23:21;;;;;;;14.83;14.23;;;20.60;87.40;;;;;;5053763;28;20539;-49
2021/11/25 07:25:48;;;;;;;14.30;13.63;;;20.50;87.90;;;;;;5053918;28;20443;-48
2021/11/25 07:28:17;;;;;;;16.20;15.23;;;20.50;87.10;;;;;;5053845;28;20859;-49
2021/11/25 07:30:44;;;;;;;15.00;14.20;;;20.40;87.00;;;;;;5053740;28;20444;-48
2021/11/25 07:33:11;;;;;;;16.73;15.77;;;20.40;87.00;;;;;;5053499;28;20828;-52
2021/11/25 07:35:43;;;;;;;15.17;14.40;;;20.30;86.90;;;;;;5053727;28;20483;-49
2021/11/25 07:38:10;;;;;;;15.27;14.60;;;20.30;86.90;;;;;;5053505;28;20448;-50
2021/11/25 07:40:38;;;;;;;14.97;14.27;;;20.20;87.40;;;;;;5052793;28;20560;-51
2021/11/25 07:43:06;;;;;;;17.60;16.40;;;20.20;86.60;;;;;;5053448;28;20448;-48
2021/11/25 07:45:34;;;;;;;15.40;14.70;;;20.10;86.40;;;;;;5053565;28;20824;-47
2021/11/25 07:48:01;;;;;;;15.43;14.37;;;20.10;86.40;;;;;;5053391;28;20446;-48
2021/11/25 07:50:28;;;;;;;14.80;14.10;;;20.00;86.10;;;;;;5053299;28;20482;-47
2021/11/25 07:52:55;;;;;;;15.93;14.80;;;19.90;86.00;;;;;;5053226;28;20869;-47
2021/11/25 07:55:23;;;;;;;16.97;15.80;;;19.90;86.20;;;;;;5053279;28;20490;-51
2021/11/25 07:57:50;;;;;;;15.23;14.40;;;19.80;86.10;;;;;;5053358;28;20480;-51
2021/11/25 08:00:21;;;;;;;15.47;14.67;;;19.70;86.10;;;;;;5053208;28;20467;-47
2021/11/25 08:02:49;;;;;;;16.30;15.50;;;19.70;86.30;;;;;;5053182;28;20831;-51
2021/11/25 08:05:17;;;;;;;14.40;13.83;;;19.60;86.30;;;;;;5053177;28;20444;-48
2021/11/25 08:07:43;;;;;;;14.80;14.10;;;19.50;86.10;;;;;;5053188;28;20456;-49
2021/11/25 08:10:14;;;;;;;16.70;15.77;;;19.50;86.10;;;;;;5052879;28;20468;-50
2021/11/25 08:12:41;;;;;;;14.83;13.93;;;19.30;86.70;;;;;;5052845;28;20929;-48
2021/11/25 08:15:09;;;;;;;15.13;14.43;;;19.30;86.90;;;;;;5052969;28;20484;-47
2021/11/25 08:17:36;;;;;;;17.00;16.13;;;19.30;87.70;;;;;;5052928;28;20452;-48
2021/11/25 08:20:05;;;;;;;14.70;14.10;;;19.10;87.20;;;;;;5052804;28;20546;-48
2021/11/25 08:22:32;;;;;;;15.33;14.43;;;19.10;87.60;;;;;;5052628;28;20527;-47
2021/11/25 08:24:59;;;;;;;14.17;13.67;;;19.00;87.70;;;;;;5052833;28;20955;-49
2021/11/25 08:27:27;;;;;;;14.77;14.27;;;19.00;87.80;;;;;;5052759;28;20456;-47
2021/11/25 08:29:54;;;;;;;16.20;15.60;;;18.90;88.20;;;;;;5052686;28;20472;-47
2021/11/25 08:32:20;;;;;;;14.60;13.90;;;18.80;88.30;;;;;;5052423;28;20448;-47
2021/11/25 08:34:47;;;;;;;14.90;14.30;;;18.80;88.40;;;;;;5052696;28;20480;-52
2021/11/25 08:37:16;;;;;;;14.97;14.37;;;18.80;88.40;;;;;;5052526;28;20451;-50
2021/11/25 08:39:42;;;;;;;14.47;13.87;;;18.80;88.40;;;;;;5052489;28;20461;-52
2021/11/25 08:42:10;;;;;;;14.03;13.53;;;18.70;88.40;;;;;;5052164;28;20448;-55
2021/11/25 08:44:37;;;;;;;14.13;13.43;;;18.60;88.30;;;;;;5052433;28;20991;-47
2021/11/25 08:47:04;;;;;;;14.70;14.10;;;18.60;88.40;;;;;;5052440;28;20807;-47
2021/11/25 08:49:31;;;;;;;15.00;14.20;;;18.60;88.40;;;;;;5052048;28;20479;-51
2021/11/25 08:51:58;;;;;;;14.10;13.40;;;18.60;88.30;;;;;;5051812;28;20454;-47
2021/11/25 08:54:26;;;;;;;15.23;14.63;;;18.50;88.10;;;;;;5052198;28;20875;-47
2021/11/25 08:56:53;;;;;;;14.97;14.37;;;18.50;88.30;;;;;;5052209;28;20813;-47
2021/11/25 08:59:20;;;;;;;14.60;13.90;;;18.50;88.40;;;;;;5052065;28;20543;-47
2021/11/25 09:01:48;;;;;;;13.87;13.40;;;18.50;88.00;;;;;;5051964;28;20959;-47
2021/11/25 09:04:14;;;;;;;14.50;13.70;;;18.50;87.70;;;;;;5052003;28;20439;-49
2021/11/25 09:06:41;;;;;;;15.00;14.20;;;18.50;87.50;;;;;;5052039;28;20443;-50
2021/11/25 09:09:10;;;;;;;14.77;14.07;;;18.50;87.70;;;;;;5051802;28;20467;-47
2021/11/25 09:11:38;;;;;;;13.50;13.00;;;18.40;87.80;;;;;;5051832;28;20795;-47
2021/11/25 09:14:05;;;;;;;15.27;14.33;;;18.30;87.90;;;;;;5051854;28;20808;-50
2021/11/25 09:16:32;;;;;;;14.40;13.90;;;18.30;87.90;;;;;;5051844;28;20562;-50
2021/11/25 09:19:00;;;;;;;15.00;14.43;;;18.30;88.10;;;;;;5051784;28;20466;-49
2021/11/25 09:21:29;;;;;;;15.43;14.73;;;18.30;88.10;;;;;;5051595;28;20543;-52
2021/11/25 09:23:56;;;;;;;15.33;14.77;;;18.20;88.20;;;;;;5051665;28;20501;-50
2021/11/25 09:26:23;;;;;;;14.10;13.50;;;18.20;88.30;;;;;;5051660;28;20446;-48
2021/11/25 09:28:57;;;;;;;14.37;13.87;;;18.10;88.30;;;;;;5051494;28;20852;-52
2021/11/25 09:31:24;;;;;;;14.60;14.00;;;18.10;88.50;;;;;;5051709;28;20476;-48
2021/11/25 09:33:51;;;;;;;13.57;13.17;;;18.10;88.50;;;;;;5051520;28;20448;-47
2021/11/25 09:36:18;;;;;;;13.73;13.20;;;18.10;88.50;;;;;;5051541;28;20482;-47
2021/11/25 09:38:45;;;;;;;13.77;13.23;;;18.00;88.60;;;;;;5051577;28;20464;-49
2021/11/25 09:41:12;;;;;;;13.70;13.30;;;18.10;88.60;;;;;;5051335;28;20444;-47
2021/11/25 09:43:40;;;;;;;14.10;13.50;;;18.40;87.50;;;;;;5051187;28;20444;-48
2021/11/25 09:46:09;;;;;;;13.50;13.10;;;18.70;85.90;;;;;;5051468;28;20455;-53
2021/11/25 09:48:37;;;;;;;13.80;13.30;;;18.90;84.20;;;;;;5051316;28;20849;-47
2021/11/25 09:51:06;;;;;;;14.70;14.20;;;19.00;83.60;;;;;;5051461;28;20510;-47
2021/11/25 09:53:34;;;;;;;13.87;13.37;;;19.00;82.40;;;;;;5051190;28;20440;-48
2021/11/25 09:56:01;;;;;;;14.40;13.90;;;19.10;82.00;;;;;;5051356;28;20490;-47
2021/11/25 09:58:31;;;;;;;14.03;13.53;;;19.20;81.10;;;;;;5051226;28;20939;-47
2021/11/25 10:01:02;;;;;;;14.27;13.67;;;19.20;80.50;;;;;;5051344;28;21036;-48
2021/11/25 10:03:30;;;;;;;13.63;13.13;;;19.20;79.70;;;;;;5053704;28;20448;-50
2021/11/25 10:05:58;;;;;;;13.67;13.17;;;19.20;79.30;;;;;;5055460;28;20540;-50
2021/11/25 10:08:28;;;;;;;13.83;13.43;;;19.20;79.20;;;;;;5055278;28;20444;-50
2021/11/25 10:11:05;;;;;;;14.40;13.90;;;19.20;78.70;;;;;;5055495;28;20443;-49
2021/11/25 10:13:41;;;;;;;13.87;13.47;;;19.20;78.60;;;;;;5055057;28;20439;-51
2021/11/25 10:16:12;;;;;;;13.10;12.70;;;19.20;78.30;;;;;;5055249;28;20487;-48
2021/11/25 10:18:41;;;;;;;13.27;12.87;;;19.20;78.10;;;;;;5055193;28;20467;-47
2021/11/25 10:21:10;;;;;;;13.70;13.20;;;19.20;77.80;;;;;;5055170;28;20444;-49
2021/11/25 10:23:38;;;;;;;14.27;13.67;;;19.10;77.80;;;;;;5054940;28;20455;-52
2021/11/25 10:26:07;;;;;;;13.50;13.10;;;19.10;77.60;;;;;;5055143;28;20816;-47
2021/11/25 10:28:40;;;;;;;13.80;13.30;;;19.10;77.70;;;;;;5054896;28;20518;-47
2021/11/25 10:31:11;;;;;;;14.23;13.83;;;19.10;77.50;;;;;;5055059;28;20527;-47
2021/11/25 10:33:56;;;;;;;14.40;13.90;;;19.00;77.50;;;;;;5054860;28;20444;-50
2021/11/25 10:36:51;;;;;;;15.30;14.80;;;19.00;77.60;;;;;;5054974;28;20915;-47
2021/11/25 10:39:47;;;;;;;13.90;13.40;;;18.90;77.30;;;;;;5054875;28;20468;-47
2021/11/25 10:42:15;;;;;;;14.57;13.97;;;19.00;77.20;;;;;;5054573;28;20502;-47
2021/11/25 10:44:47;;;;;;;13.60;13.10;;;18.90;77.10;;;;;;5054758;28;20446;-48
2021/11/25 10:47:16;;;;;;;14.13;13.63;;;18.70;77.80;;;;;;5054818;28;20479;-47
2021/11/25 10:49:47;;;;;;;14.27;13.87;;;18.70;78.30;;;;;;5054367;28;20471;-47
2021/11/25 10:52:18;;;;;;;13.10;12.70;;;18.60;78.30;;;;;;5054440;28;20506;-47
2021/11/25 10:54:48;;;;;;;13.67;13.27;;;18.60;78.30;;;;;;5054650;28;20462;-47
2021/11/25 10:57:15;;;;;;;13.60;13.03;;;18.60;78.30;;;;;;5054343;28;20490;-50
2021/11/25 10:59:44;;;;;;;13.33;12.83;;;18.60;78.30;;;;;;5054330;28;20470;-47
2021/11/25 11:02:30;;;;;;;14.20;13.50;;;18.60;78.00;;;;;;5054114;28;20450;-47
2021/11/25 11:05:02;;;;;;;13.53;13.13;;;18.60;77.90;;;;;;5054308;28;20478;-52
2021/11/25 11:07:32;;;;;;;14.10;13.60;;;18.70;78.60;;;;;;5054204;28;20498;-50
2021/11/25 11:10:00;;;;;;;15.07;14.50;;;18.60;79.80;;;;;;5054169;28;20460;-49
2021/11/25 11:12:32;;;;;;;14.40;13.90;;;18.60;81.30;;;;;;5054013;28;20509;-49
2021/11/25 11:15:25;;;;;;;13.97;13.47;;;18.50;82.20;;;;;;5053964;28;20942;-51
2021/11/25 11:18:02;;;;;;;14.57;13.97;;;18.50;82.60;;;;;;5053292;28;20930;-51
2021/11/25 11:20:32;;;;;;;14.10;13.60;;;18.60;83.40;;;;;;5033362;28;20464;-50
2021/11/25 11:23:01;;;;;;;14.07;13.57;;;18.60;83.10;;;;;;5033725;28;20536;-53
2021/11/25 11:25:29;;;;;;;15.03;14.50;;;18.60;83.30;;;;;;5034017;28;20449;-49
2021/11/25 11:27:58;;;;;;;13.50;13.00;;;18.60;83.90;;;;;;5034331;28;20451;-52
2021/11/25 11:30:27;;;;;;;13.40;12.90;;;18.50;84.20;;;;;;5053795;28;20467;-49
2021/11/25 11:32:54;;;;;;;14.80;14.20;;;18.50;85.00;;;;;;5053587;28;20448;-51
2021/11/25 11:35:23;;;;;;;14.83;14.23;;;18.40;85.60;;;;;;5053622;28;20933;-50
2021/11/25 11:37:53;;;;;;;14.10;13.57;;;18.40;85.90;;;;;;5053742;28;20448;-48
2021/11/25 11:40:23;;;;;;;14.10;13.50;;;18.40;86.20;;;;;;5051874;28;20471;-52
2021/11/25 11:42:52;;;;;;;15.83;15.07;;;18.30;86.70;;;;;;5052513;28;20584;-51
2021/11/25 11:45:21;;;;;;;14.17;13.67;;;18.30;87.40;;;;;;5053526;28;20967;-51
2021/11/25 11:47:52;;;;;;;14.33;13.83;;;18.20;87.30;;;;;;5053551;28;20957;-56
2021/11/25 11:50:30;;;;;;;13.33;12.93;;;18.10;88.00;;;;;;5053130;28;20480;-53
2021/11/25 11:53:00;;;;;;;14.60;14.00;;;18.10;88.00;;;;;;5053384;28;20472;-51
2021/11/25 11:55:36;;;;;;;15.13;14.33;;;18.10;87.80;;;;;;5053324;28;20444;-51
2021/11/25 11:58:25;;;;;;;13.63;13.20;;;18.10;87.20;;;;;;5053271;28;20444;-54
2021/11/25 12:00:54;;;;;;;13.80;13.30;;;18.20;86.60;;;;;;5053289;28;20440;-51
2021/11/25 12:03:36;;;;;;;13.70;13.30;;;18.20;85.90;;;;;;5053136;28;20444;-53
2021/11/25 12:06:04;;;;;;;14.47;13.97;;;18.20;85.80;;;;;;5053367;28;20428;-53
2021/11/25 12:08:47;;;;;;;16.77;15.97;;;18.10;85.60;;;;;;5053121;28;20483;-53
2021/11/25 12:11:20;;;;;;;15.20;14.70;;;18.10;85.80;;;;;;5053026;28;20881;-54
2021/11/25 12:14:18;;;;;;;14.43;13.93;;;18.00;85.60;;;;;;5052949;28;20979;-52
2021/11/25 12:16:56;;;;;;;15.30;14.80;;;18.10;85.60;;;;;;5040837;28;21039;-51
2021/11/25 12:19:29;;;;;;;13.60;13.20;;;18.40;84.40;;;;;;5052859;28;20985;-51
2021/11/25 12:21:58;;;;;;;15.23;14.63;;;18.60;82.80;;;;;;5052801;28;20969;-51
2021/11/25 12:24:33;;;;;;;15.77;14.97;;;18.70;81.70;;;;;;5052778;28;20444;-51
2021/11/25 12:27:12;;;;;;;14.07;13.57;;;18.70;80.90;;;;;;5052222;28;20453;-51
2021/11/25 12:29:47;;;;;;;16.60;15.90;;;18.70;80.30;;;;;;5052673;28;20464;-51
2021/11/25 12:32:37;;;;;;;14.60;14.07;;;18.70;79.80;;;;;;5052454;28;20448;-55
2021/11/25 12:35:40;;;;;;;12.80;12.40;;;18.70;79.40;;;;;;5049120;28;20478;-52
2021/11/25 12:38:13;;;;;;;13.83;13.40;;;18.70;78.90;;;;;;5052684;28;20498;-50
2021/11/25 12:40:52;;;;;;;13.53;12.90;;;18.70;78.50;;;;;;5052488;28;20804;-51